sensor_id;sensor_type;location;lat;lon;timestamp;P1;durP1;ratioP1;P2;durP2;ratioP2
45402;SDS011;47427;51.976;5.326;2022-10-16T00:00:12;6.82;;;3.17;;
45402;SDS011;47427;51.976;5.326;2022-10-16T00:03:35;7.10;;;3.30;;
45402;SDS011;47427;51.976;5.326;2022-10-16T00:06:57;10.55;;;3.63;;
45402;SDS011;47427;51.976;5.326;2022-10-16T00:10:20;11.32;;;3.58;;
45402;SDS011;47427;51.976;5.326;2022-10-16T00:13:43;8.75;;;3.08;;
45402;SDS011;47427;51.976;5.326;2022-10-16T00:17:10;7.45;;;3.70;;
45402;SDS011;47427;51.976;5.326;2022-10-16T00:20:51;10.38;;;3.90;;
45402;SDS011;47427;51.976;5.326;2022-10-16T00:24:14;16.20;;;5.68;;
45402;SDS011;47427;51.976;5.326;2022-10-16T00:27:37;10.52;;;4.47;;
45402;SDS011;47427;51.976;5.326;2022-10-16T00:31:03;7.53;;;3.55;;
45402;SDS011;47427;51.976;5.326;2022-10-16T00:34:35;8.57;;;4.05;;
45402;SDS011;47427;51.976;5.326;2022-10-16T00:37:58;9.75;;;4.22;;
45402;SDS011;47427;51.976;5.326;2022-10-16T00:41:22;8.38;;;4.13;;
45402;SDS011;47427;51.976;5.326;2022-10-16T00:44:47;7.45;;;3.35;;
45402;SDS011;47427;51.976;5.326;2022-10-16T00:48:21;4.82;;;3.35;;
45402;SDS011;47427;51.976;5.326;2022-10-16T00:51:48;9.02;;;3.35;;
45402;SDS011;47427;51.976;5.326;2022-10-16T00:55:14;8.85;;;3.67;;
45402;SDS011;47427;51.976;5.326;2022-10-16T00:58:37;7.07;;;3.65;;
45402;SDS011;47427;51.976;5.326;2022-10-16T01:02:00;7.25;;;3.75;;
45402;SDS011;47427;51.976;5.326;2022-10-16T01:05:33;5.60;;;3.85;;
45402;SDS011;47427;51.976;5.326;2022-10-16T01:09:17;5.10;;;3.13;;
45402;SDS011;47427;51.976;5.326;2022-10-16T01:13:10;9.18;;;3.45;;
45402;SDS011;47427;51.976;5.326;2022-10-16T01:16:51;7.88;;;3.70;;
45402;SDS011;47427;51.976;5.326;2022-10-16T01:24:05;6.35;;;3.38;;
45402;SDS011;47427;51.976;5.326;2022-10-16T01:27:38;11.70;;;4.03;;
45402;SDS011;47427;51.976;5.326;2022-10-16T01:31:24;10.77;;;4.88;;
45402;SDS011;47427;51.976;5.326;2022-10-16T01:34:52;8.82;;;4.20;;
45402;SDS011;47427;51.976;5.326;2022-10-16T01:38:29;5.95;;;3.70;;
45402;SDS011;47427;51.976;5.326;2022-10-16T01:42:00;6.68;;;3.80;;
45402;SDS011;47427;51.976;5.326;2022-10-16T01:45:31;7.95;;;3.65;;
45402;SDS011;47427;51.976;5.326;2022-10-16T01:48:56;10.07;;;3.53;;
45402;SDS011;47427;51.976;5.326;2022-10-16T01:52:23;5.78;;;3.60;;
45402;SDS011;47427;51.976;5.326;2022-10-16T01:55:50;7.22;;;3.90;;
45402;SDS011;47427;51.976;5.326;2022-10-16T01:59:18;8.13;;;4.20;;
45402;SDS011;47427;51.976;5.326;2022-10-16T02:02:46;9.40;;;4.63;;
45402;SDS011;47427;51.976;5.326;2022-10-16T02:06:14;10.65;;;4.20;;
45402;SDS011;47427;51.976;5.326;2022-10-16T02:09:37;7.65;;;4.80;;
45402;SDS011;47427;51.976;5.326;2022-10-16T02:13:04;8.50;;;4.85;;
45402;SDS011;47427;51.976;5.326;2022-10-16T02:16:35;8.55;;;5.47;;
45402;SDS011;47427;51.976;5.326;2022-10-16T02:20:06;6.90;;;5.07;;
45402;SDS011;47427;51.976;5.326;2022-10-16T02:27:54;7.35;;;4.70;;
45402;SDS011;47427;51.976;5.326;2022-10-16T02:31:35;5.70;;;4.15;;
45402;SDS011;47427;51.976;5.326;2022-10-16T02:35:06;7.88;;;4.38;;
45402;SDS011;47427;51.976;5.326;2022-10-16T02:38:30;8.25;;;4.35;;
45402;SDS011;47427;51.976;5.326;2022-10-16T02:41:54;10.77;;;4.63;;
45402;SDS011;47427;51.976;5.326;2022-10-16T02:45:17;8.65;;;3.38;;
45402;SDS011;47427;51.976;5.326;2022-10-16T02:48:40;9.10;;;4.80;;
45402;SDS011;47427;51.976;5.326;2022-10-16T02:52:03;8.98;;;5.03;;
45402;SDS011;47427;51.976;5.326;2022-10-16T02:55:25;17.77;;;6.80;;
45402;SDS011;47427;51.976;5.326;2022-10-16T02:58:49;19.45;;;6.07;;
45402;SDS011;47427;51.976;5.326;2022-10-16T03:02:12;17.58;;;7.22;;
45402;SDS011;47427;51.976;5.326;2022-10-16T03:05:35;17.67;;;7.03;;
45402;SDS011;47427;51.976;5.326;2022-10-16T03:08:57;7.45;;;5.32;;
45402;SDS011;47427;51.976;5.326;2022-10-16T03:12:20;9.23;;;5.80;;
45402;SDS011;47427;51.976;5.326;2022-10-16T03:15:43;10.68;;;4.57;;
45402;SDS011;47427;51.976;5.326;2022-10-16T03:19:06;6.32;;;3.95;;
45402;SDS011;47427;51.976;5.326;2022-10-16T03:22:29;5.78;;;3.80;;
45402;SDS011;47427;51.976;5.326;2022-10-16T03:25:51;5.60;;;3.92;;
45402;SDS011;47427;51.976;5.326;2022-10-16T03:29:14;5.20;;;3.42;;
45402;SDS011;47427;51.976;5.326;2022-10-16T03:32:37;5.05;;;3.10;;
45402;SDS011;47427;51.976;5.326;2022-10-16T03:35:59;4.57;;;3.63;;
45402;SDS011;47427;51.976;5.326;2022-10-16T03:39:22;3.22;;;2.53;;
45402;SDS011;47427;51.976;5.326;2022-10-16T03:42:45;4.88;;;2.97;;
45402;SDS011;47427;51.976;5.326;2022-10-16T03:46:08;3.35;;;2.50;;
45402;SDS011;47427;51.976;5.326;2022-10-16T03:49:49;3.20;;;2.90;;
45402;SDS011;47427;51.976;5.326;2022-10-16T03:53:12;5.32;;;2.95;;
45402;SDS011;47427;51.976;5.326;2022-10-16T03:56:35;4.35;;;3.10;;
45402;SDS011;47427;51.976;5.326;2022-10-16T03:59:57;3.88;;;3.15;;
45402;SDS011;47427;51.976;5.326;2022-10-16T04:03:20;5.10;;;3.00;;
45402;SDS011;47427;51.976;5.326;2022-10-16T04:06:43;6.18;;;4.10;;
45402;SDS011;47427;51.976;5.326;2022-10-16T04:10:06;3.80;;;2.72;;
45402;SDS011;47427;51.976;5.326;2022-10-16T04:13:29;7.47;;;3.80;;
45402;SDS011;47427;51.976;5.326;2022-10-16T04:16:52;5.68;;;3.40;;
45402;SDS011;47427;51.976;5.326;2022-10-16T04:20:14;7.15;;;3.72;;
45402;SDS011;47427;51.976;5.326;2022-10-16T04:23:37;7.78;;;3.17;;
45402;SDS011;47427;51.976;5.326;2022-10-16T04:27:00;8.05;;;3.33;;
45402;SDS011;47427;51.976;5.326;2022-10-16T04:30:23;7.30;;;2.80;;
45402;SDS011;47427;51.976;5.326;2022-10-16T04:33:46;6.55;;;3.13;;
45402;SDS011;47427;51.976;5.326;2022-10-16T04:37:09;5.68;;;4.00;;
45402;SDS011;47427;51.976;5.326;2022-10-16T04:40:31;12.10;;;3.60;;
45402;SDS011;47427;51.976;5.326;2022-10-16T04:43:54;6.97;;;3.55;;
45402;SDS011;47427;51.976;5.326;2022-10-16T04:47:17;12.43;;;4.68;;
45402;SDS011;47427;51.976;5.326;2022-10-16T04:50:40;9.15;;;4.18;;
45402;SDS011;47427;51.976;5.326;2022-10-16T04:54:03;5.68;;;3.70;;
45402;SDS011;47427;51.976;5.326;2022-10-16T04:57:26;11.15;;;3.30;;
45402;SDS011;47427;51.976;5.326;2022-10-16T05:00:49;6.32;;;4.00;;
45402;SDS011;47427;51.976;5.326;2022-10-16T05:04:12;4.32;;;3.88;;
45402;SDS011;47427;51.976;5.326;2022-10-16T05:07:36;6.65;;;3.20;;
45402;SDS011;47427;51.976;5.326;2022-10-16T05:10:59;3.92;;;2.60;;
45402;SDS011;47427;51.976;5.326;2022-10-16T05:14:22;6.90;;;3.35;;
45402;SDS011;47427;51.976;5.326;2022-10-16T05:18:03;4.95;;;2.85;;
45402;SDS011;47427;51.976;5.326;2022-10-16T05:21:26;3.83;;;2.67;;
45402;SDS011;47427;51.976;5.326;2022-10-16T05:24:48;4.15;;;3.08;;
45402;SDS011;47427;51.976;5.326;2022-10-16T05:28:11;3.55;;;2.80;;
45402;SDS011;47427;51.976;5.326;2022-10-16T05:31:34;6.57;;;2.90;;
45402;SDS011;47427;51.976;5.326;2022-10-16T05:34:56;5.97;;;2.92;;
45402;SDS011;47427;51.976;5.326;2022-10-16T05:38:21;5.30;;;2.90;;
45402;SDS011;47427;51.976;5.326;2022-10-16T05:41:44;4.50;;;3.00;;
45402;SDS011;47427;51.976;5.326;2022-10-16T05:45:08;6.47;;;3.22;;
45402;SDS011;47427;51.976;5.326;2022-10-16T05:48:32;4.10;;;2.90;;
45402;SDS011;47427;51.976;5.326;2022-10-16T05:51:55;4.72;;;2.95;;
45402;SDS011;47427;51.976;5.326;2022-10-16T05:55:18;4.88;;;3.60;;
45402;SDS011;47427;51.976;5.326;2022-10-16T05:58:41;5.30;;;3.40;;
45402;SDS011;47427;51.976;5.326;2022-10-16T06:02:04;6.13;;;3.33;;
45402;SDS011;47427;51.976;5.326;2022-10-16T06:05:26;8.38;;;3.25;;
45402;SDS011;47427;51.976;5.326;2022-10-16T06:08:49;4.35;;;2.75;;
45402;SDS011;47427;51.976;5.326;2022-10-16T06:12:12;5.65;;;3.33;;
45402;SDS011;47427;51.976;5.326;2022-10-16T06:15:34;7.78;;;3.30;;
45402;SDS011;47427;51.976;5.326;2022-10-16T06:18:57;10.30;;;3.55;;
45402;SDS011;47427;51.976;5.326;2022-10-16T06:22:21;10.18;;;3.85;;
45402;SDS011;47427;51.976;5.326;2022-10-16T06:26:06;4.72;;;3.65;;
45402;SDS011;47427;51.976;5.326;2022-10-16T06:29:34;7.25;;;3.10;;
45402;SDS011;47427;51.976;5.326;2022-10-16T06:32:56;6.65;;;3.22;;
45402;SDS011;47427;51.976;5.326;2022-10-16T06:36:19;5.43;;;2.83;;
45402;SDS011;47427;51.976;5.326;2022-10-16T06:39:42;7.30;;;3.58;;
45402;SDS011;47427;51.976;5.326;2022-10-16T06:43:05;6.65;;;3.70;;
45402;SDS011;47427;51.976;5.326;2022-10-16T06:46:28;6.28;;;3.63;;
45402;SDS011;47427;51.976;5.326;2022-10-16T06:49:50;6.40;;;2.88;;
45402;SDS011;47427;51.976;5.326;2022-10-16T06:53:13;4.15;;;2.72;;
45402;SDS011;47427;51.976;5.326;2022-10-16T06:56:36;7.45;;;3.10;;
45402;SDS011;47427;51.976;5.326;2022-10-16T06:59:59;6.40;;;2.88;;
45402;SDS011;47427;51.976;5.326;2022-10-16T07:03:22;7.35;;;3.08;;
45402;SDS011;47427;51.976;5.326;2022-10-16T07:06:45;9.57;;;3.40;;
45402;SDS011;47427;51.976;5.326;2022-10-16T07:10:07;8.20;;;3.30;;
45402;SDS011;47427;51.976;5.326;2022-10-16T07:13:32;10.63;;;3.38;;
45402;SDS011;47427;51.976;5.326;2022-10-16T07:16:56;6.53;;;3.40;;
45402;SDS011;47427;51.976;5.326;2022-10-16T07:20:19;10.10;;;3.35;;
45402;SDS011;47427;51.976;5.326;2022-10-16T07:23:42;4.45;;;2.72;;
45402;SDS011;47427;51.976;5.326;2022-10-16T07:27:05;6.43;;;3.10;;
45402;SDS011;47427;51.976;5.326;2022-10-16T07:30:28;7.40;;;2.90;;
45402;SDS011;47427;51.976;5.326;2022-10-16T07:33:51;9.15;;;3.38;;
45402;SDS011;47427;51.976;5.326;2022-10-16T07:37:14;3.75;;;2.60;;
45402;SDS011;47427;51.976;5.326;2022-10-16T07:40:37;6.00;;;3.08;;
45402;SDS011;47427;51.976;5.326;2022-10-16T07:43:59;8.85;;;3.65;;
45402;SDS011;47427;51.976;5.326;2022-10-16T07:47:22;7.22;;;3.33;;
45402;SDS011;47427;51.976;5.326;2022-10-16T07:50:45;3.97;;;2.92;;
45402;SDS011;47427;51.976;5.326;2022-10-16T07:54:08;4.50;;;2.65;;
45402;SDS011;47427;51.976;5.326;2022-10-16T07:57:31;8.02;;;3.78;;
45402;SDS011;47427;51.976;5.326;2022-10-16T08:00:54;8.02;;;3.33;;
45402;SDS011;47427;51.976;5.326;2022-10-16T08:04:18;5.07;;;2.70;;
45402;SDS011;47427;51.976;5.326;2022-10-16T08:07:40;5.38;;;3.47;;
45402;SDS011;47427;51.976;5.326;2022-10-16T08:11:03;8.07;;;2.72;;
45402;SDS011;47427;51.976;5.326;2022-10-16T08:14:26;8.57;;;2.72;;
45402;SDS011;47427;51.976;5.326;2022-10-16T08:17:56;5.57;;;2.58;;
45402;SDS011;47427;51.976;5.326;2022-10-16T08:21:42;7.63;;;3.05;;
45402;SDS011;47427;51.976;5.326;2022-10-16T08:25:08;4.15;;;2.63;;
45402;SDS011;47427;51.976;5.326;2022-10-16T08:28:31;12.23;;;2.90;;
45402;SDS011;47427;51.976;5.326;2022-10-16T08:31:54;8.65;;;4.20;;
45402;SDS011;47427;51.976;5.326;2022-10-16T08:35:17;10.55;;;4.38;;
45402;SDS011;47427;51.976;5.326;2022-10-16T08:38:40;6.10;;;2.83;;
45402;SDS011;47427;51.976;5.326;2022-10-16T08:46:17;7.75;;;3.45;;
45402;SDS011;47427;51.976;5.326;2022-10-16T08:50:24;6.47;;;2.70;;
45402;SDS011;47427;51.976;5.326;2022-10-16T08:53:54;14.50;;;3.75;;
45402;SDS011;47427;51.976;5.326;2022-10-16T08:57:47;8.68;;;3.00;;
45402;SDS011;47427;51.976;5.326;2022-10-16T09:01:12;8.55;;;2.60;;
45402;SDS011;47427;51.976;5.326;2022-10-16T09:04:48;6.68;;;2.85;;
45402;SDS011;47427;51.976;5.326;2022-10-16T09:13:14;9.57;;;3.28;;
45402;SDS011;47427;51.976;5.326;2022-10-16T09:24:09;8.93;;;4.90;;
45402;SDS011;47427;51.976;5.326;2022-10-16T09:27:37;12.68;;;5.68;;
45402;SDS011;47427;51.976;5.326;2022-10-16T09:30:58;10.15;;;6.20;;
45402;SDS011;47427;51.976;5.326;2022-10-16T09:34:30;10.82;;;5.53;;
45402;SDS011;47427;51.976;5.326;2022-10-16T09:37:57;14.95;;;4.72;;
45402;SDS011;47427;51.976;5.326;2022-10-16T09:41:20;11.13;;;5.63;;
45402;SDS011;47427;51.976;5.326;2022-10-16T09:44:46;21.85;;;17.65;;
45402;SDS011;47427;51.976;5.326;2022-10-16T09:48:11;14.10;;;8.68;;
45402;SDS011;47427;51.976;5.326;2022-10-16T09:51:40;15.60;;;5.43;;
45402;SDS011;47427;51.976;5.326;2022-10-16T09:55:09;13.07;;;3.95;;
45402;SDS011;47427;51.976;5.326;2022-10-16T09:58:36;10.63;;;4.25;;
45402;SDS011;47427;51.976;5.326;2022-10-16T10:02:11;6.95;;;2.95;;
45402;SDS011;47427;51.976;5.326;2022-10-16T10:05:38;14.55;;;4.25;;
45402;SDS011;47427;51.976;5.326;2022-10-16T10:09:02;11.55;;;4.10;;
45402;SDS011;47427;51.976;5.326;2022-10-16T10:12:43;9.57;;;3.55;;
45402;SDS011;47427;51.976;5.326;2022-10-16T10:16:06;15.27;;;4.90;;
45402;SDS011;47427;51.976;5.326;2022-10-16T10:19:28;13.90;;;4.57;;
45402;SDS011;47427;51.976;5.326;2022-10-16T10:22:50;16.60;;;7.22;;
45402;SDS011;47427;51.976;5.326;2022-10-16T10:26:15;15.65;;;10.40;;
45402;SDS011;47427;51.976;5.326;2022-10-16T10:44:51;16.25;;;5.10;;
45402;SDS011;47427;51.976;5.326;2022-10-16T10:52:29;12.73;;;5.05;;
45402;SDS011;47427;51.976;5.326;2022-10-16T10:57:00;11.52;;;4.38;;
45402;SDS011;47427;51.976;5.326;2022-10-16T11:08:20;13.18;;;3.63;;
45402;SDS011;47427;51.976;5.326;2022-10-16T11:11:50;10.50;;;4.00;;
45402;SDS011;47427;51.976;5.326;2022-10-16T11:15:32;16.52;;;5.22;;
45402;SDS011;47427;51.976;5.326;2022-10-16T11:22:51;14.30;;;4.22;;
45402;SDS011;47427;51.976;5.326;2022-10-16T11:26:39;15.77;;;4.20;;
45402;SDS011;47427;51.976;5.326;2022-10-16T11:30:05;11.55;;;3.58;;
45402;SDS011;47427;51.976;5.326;2022-10-16T11:40:52;18.05;;;4.20;;
45402;SDS011;47427;51.976;5.326;2022-10-16T11:48:26;10.30;;;3.03;;
45402;SDS011;47427;51.976;5.326;2022-10-16T11:52:36;13.30;;;3.95;;
45402;SDS011;47427;51.976;5.326;2022-10-16T11:56:05;13.25;;;4.43;;
45402;SDS011;47427;51.976;5.326;2022-10-16T11:59:32;15.10;;;3.92;;
45402;SDS011;47427;51.976;5.326;2022-10-16T12:10:39;8.55;;;3.67;;
45402;SDS011;47427;51.976;5.326;2022-10-16T12:17:34;15.25;;;3.70;;
45402;SDS011;47427;51.976;5.326;2022-10-16T12:20:59;9.85;;;4.15;;
45402;SDS011;47427;51.976;5.326;2022-10-16T12:24:37;14.98;;;4.28;;
45402;SDS011;47427;51.976;5.326;2022-10-16T12:28:06;13.45;;;4.03;;
45402;SDS011;47427;51.976;5.326;2022-10-16T12:31:43;11.23;;;3.45;;
45402;SDS011;47427;51.976;5.326;2022-10-16T12:39:16;10.25;;;3.67;;
45402;SDS011;47427;51.976;5.326;2022-10-16T12:42:48;12.30;;;4.18;;
45402;SDS011;47427;51.976;5.326;2022-10-16T12:49:36;12.98;;;4.47;;
45402;SDS011;47427;51.976;5.326;2022-10-16T12:53:01;12.82;;;3.47;;
45402;SDS011;47427;51.976;5.326;2022-10-16T13:19:38;11.93;;;4.35;;
45402;SDS011;47427;51.976;5.326;2022-10-16T13:23:37;14.88;;;4.13;;
45402;SDS011;47427;51.976;5.326;2022-10-16T13:27:28;13.18;;;3.90;;
45402;SDS011;47427;51.976;5.326;2022-10-16T13:30:58;9.65;;;3.05;;
45402;SDS011;47427;51.976;5.326;2022-10-16T13:34:23;14.93;;;4.65;;
45402;SDS011;47427;51.976;5.326;2022-10-16T13:37:45;12.07;;;4.20;;
45402;SDS011;47427;51.976;5.326;2022-10-16T13:41:14;10.70;;;4.00;;
45402;SDS011;47427;51.976;5.326;2022-10-16T13:44:39;13.90;;;3.28;;
45402;SDS011;47427;51.976;5.326;2022-10-16T13:48:11;10.55;;;3.40;;
45402;SDS011;47427;51.976;5.326;2022-10-16T13:51:33;13.75;;;3.47;;
45402;SDS011;47427;51.976;5.326;2022-10-16T13:54:54;12.93;;;3.50;;
45402;SDS011;47427;51.976;5.326;2022-10-16T13:58:17;15.75;;;3.22;;
45402;SDS011;47427;51.976;5.326;2022-10-16T14:01:42;14.90;;;3.90;;
45402;SDS011;47427;51.976;5.326;2022-10-16T14:05:07;15.07;;;3.50;;
45402;SDS011;47427;51.976;5.326;2022-10-16T14:08:31;12.63;;;3.85;;
45402;SDS011;47427;51.976;5.326;2022-10-16T14:11:58;13.32;;;4.10;;
45402;SDS011;47427;51.976;5.326;2022-10-16T14:15:29;12.32;;;3.85;;
45402;SDS011;47427;51.976;5.326;2022-10-16T14:19:00;31.75;;;18.52;;
45402;SDS011;47427;51.976;5.326;2022-10-16T14:22:38;15.98;;;5.30;;
45402;SDS011;47427;51.976;5.326;2022-10-16T14:29:30;17.25;;;4.28;;
45402;SDS011;47427;51.976;5.326;2022-10-16T14:32:57;14.15;;;4.35;;
45402;SDS011;47427;51.976;5.326;2022-10-16T14:36:22;12.25;;;3.38;;
45402;SDS011;47427;51.976;5.326;2022-10-16T14:39:48;15.02;;;3.95;;
45402;SDS011;47427;51.976;5.326;2022-10-16T14:43:17;12.45;;;3.92;;
45402;SDS011;47427;51.976;5.326;2022-10-16T14:46:49;17.75;;;3.92;;
45402;SDS011;47427;51.976;5.326;2022-10-16T14:50:12;11.57;;;3.97;;
45402;SDS011;47427;51.976;5.326;2022-10-16T14:53:35;18.77;;;4.47;;
45402;SDS011;47427;51.976;5.326;2022-10-16T14:56:57;11.70;;;3.30;;
45402;SDS011;47427;51.976;5.326;2022-10-16T15:00:21;15.20;;;3.90;;
45402;SDS011;47427;51.976;5.326;2022-10-16T15:03:45;11.57;;;3.50;;
45402;SDS011;47427;51.976;5.326;2022-10-16T15:07:07;15.50;;;4.47;;
45402;SDS011;47427;51.976;5.326;2022-10-16T15:10:31;15.68;;;4.63;;
45402;SDS011;47427;51.976;5.326;2022-10-16T15:13:58;13.02;;;3.95;;
45402;SDS011;47427;51.976;5.326;2022-10-16T15:17:21;15.52;;;4.90;;
45402;SDS011;47427;51.976;5.326;2022-10-16T15:20:44;14.38;;;3.78;;
45402;SDS011;47427;51.976;5.326;2022-10-16T15:24:08;13.27;;;3.25;;
45402;SDS011;47427;51.976;5.326;2022-10-16T15:27:35;13.88;;;4.10;;
45402;SDS011;47427;51.976;5.326;2022-10-16T15:31:01;18.20;;;4.25;;
45402;SDS011;47427;51.976;5.326;2022-10-16T15:34:26;16.92;;;4.45;;
45402;SDS011;47427;51.976;5.326;2022-10-16T15:37:48;13.13;;;4.57;;
45402;SDS011;47427;51.976;5.326;2022-10-16T15:41:10;17.27;;;4.22;;
45402;SDS011;47427;51.976;5.326;2022-10-16T15:44:33;20.27;;;4.18;;
45402;SDS011;47427;51.976;5.326;2022-10-16T15:47:55;15.38;;;4.25;;
45402;SDS011;47427;51.976;5.326;2022-10-16T15:51:17;25.38;;;9.82;;
45402;SDS011;47427;51.976;5.326;2022-10-16T15:54:41;25.30;;;11.77;;
45402;SDS011;47427;51.976;5.326;2022-10-16T15:58:03;37.10;;;12.25;;
45402;SDS011;47427;51.976;5.326;2022-10-16T16:01:26;35.75;;;13.75;;
45402;SDS011;47427;51.976;5.326;2022-10-16T16:04:49;24.10;;;10.02;;
45402;SDS011;47427;51.976;5.326;2022-10-16T16:08:11;19.70;;;8.77;;
45402;SDS011;47427;51.976;5.326;2022-10-16T16:11:34;17.00;;;8.02;;
45402;SDS011;47427;51.976;5.326;2022-10-16T16:15:00;18.25;;;7.25;;
45402;SDS011;47427;51.976;5.326;2022-10-16T16:18:22;14.88;;;5.78;;
45402;SDS011;47427;51.976;5.326;2022-10-16T16:21:45;19.25;;;6.78;;
45402;SDS011;47427;51.976;5.326;2022-10-16T16:25:09;13.35;;;6.57;;
45402;SDS011;47427;51.976;5.326;2022-10-16T16:28:32;20.73;;;7.28;;
45402;SDS011;47427;51.976;5.326;2022-10-16T16:31:55;27.35;;;6.68;;
45402;SDS011;47427;51.976;5.326;2022-10-16T16:35:17;18.65;;;7.07;;
45402;SDS011;47427;51.976;5.326;2022-10-16T16:38:40;18.70;;;7.22;;
45402;SDS011;47427;51.976;5.326;2022-10-16T16:42:03;19.50;;;7.03;;
45402;SDS011;47427;51.976;5.326;2022-10-16T16:45:26;15.48;;;6.15;;
45402;SDS011;47427;51.976;5.326;2022-10-16T16:48:49;20.08;;;7.05;;
45402;SDS011;47427;51.976;5.326;2022-10-16T16:52:30;18.52;;;6.22;;
45402;SDS011;47427;51.976;5.326;2022-10-16T16:55:52;15.40;;;5.57;;
45402;SDS011;47427;51.976;5.326;2022-10-16T16:59:16;26.15;;;6.70;;
45402;SDS011;47427;51.976;5.326;2022-10-16T17:02:40;18.85;;;6.53;;
45402;SDS011;47427;51.976;5.326;2022-10-16T17:06:05;14.23;;;5.57;;
45402;SDS011;47427;51.976;5.326;2022-10-16T17:09:50;20.05;;;5.82;;
45402;SDS011;47427;51.976;5.326;2022-10-16T17:13:12;21.17;;;5.32;;
45402;SDS011;47427;51.976;5.326;2022-10-16T17:16:35;18.10;;;4.32;;
45402;SDS011;47427;51.976;5.326;2022-10-16T17:19:59;17.70;;;5.05;;
45402;SDS011;47427;51.976;5.326;2022-10-16T17:23:22;29.13;;;5.70;;
45402;SDS011;47427;51.976;5.326;2022-10-16T17:27:03;24.00;;;6.07;;
45402;SDS011;47427;51.976;5.326;2022-10-16T17:30:25;20.00;;;5.15;;
45402;SDS011;47427;51.976;5.326;2022-10-16T17:34:07;22.67;;;6.57;;
45402;SDS011;47427;51.976;5.326;2022-10-16T17:37:32;20.98;;;6.38;;
45402;SDS011;47427;51.976;5.326;2022-10-16T17:40:55;13.23;;;4.85;;
45402;SDS011;47427;51.976;5.326;2022-10-16T17:44:18;14.52;;;5.13;;
45402;SDS011;47427;51.976;5.326;2022-10-16T17:47:39;15.85;;;5.40;;
45402;SDS011;47427;51.976;5.326;2022-10-16T17:51:06;13.43;;;5.25;;
45402;SDS011;47427;51.976;5.326;2022-10-16T17:57:54;21.17;;;7.20;;
45402;SDS011;47427;51.976;5.326;2022-10-16T18:01:27;16.88;;;6.38;;
45402;SDS011;47427;51.976;5.326;2022-10-16T18:04:52;19.25;;;6.97;;
45402;SDS011;47427;51.976;5.326;2022-10-16T18:08:15;25.98;;;7.47;;
45402;SDS011;47427;51.976;5.326;2022-10-16T18:11:38;19.20;;;6.85;;
45402;SDS011;47427;51.976;5.326;2022-10-16T18:15:00;16.75;;;5.97;;
45402;SDS011;47427;51.976;5.326;2022-10-16T18:18:23;24.35;;;7.68;;
45402;SDS011;47427;51.976;5.326;2022-10-16T18:21:44;18.75;;;6.50;;
45402;SDS011;47427;51.976;5.326;2022-10-16T18:25:07;14.90;;;7.35;;
45402;SDS011;47427;51.976;5.326;2022-10-16T18:28:31;22.42;;;7.55;;
45402;SDS011;47427;51.976;5.326;2022-10-16T18:31:53;20.08;;;7.40;;
45402;SDS011;47427;51.976;5.326;2022-10-16T18:35:34;22.75;;;7.30;;
45402;SDS011;47427;51.976;5.326;2022-10-16T18:38:57;20.65;;;7.40;;
45402;SDS011;47427;51.976;5.326;2022-10-16T18:42:22;15.98;;;6.82;;
45402;SDS011;47427;51.976;5.326;2022-10-16T18:45:53;22.05;;;7.07;;
45402;SDS011;47427;51.976;5.326;2022-10-16T18:49:25;19.05;;;6.85;;
45402;SDS011;47427;51.976;5.326;2022-10-16T18:52:49;21.08;;;7.45;;
45402;SDS011;47427;51.976;5.326;2022-10-16T18:56:10;22.73;;;7.47;;
45402;SDS011;47427;51.976;5.326;2022-10-16T18:59:37;20.48;;;8.55;;
45402;SDS011;47427;51.976;5.326;2022-10-16T19:02:59;27.02;;;11.00;;
45402;SDS011;47427;51.976;5.326;2022-10-16T19:06:22;30.33;;;13.80;;
45402;SDS011;47427;51.976;5.326;2022-10-16T19:09:45;18.52;;;9.98;;
45402;SDS011;47427;51.976;5.326;2022-10-16T19:13:07;22.70;;;10.10;;
45402;SDS011;47427;51.976;5.326;2022-10-16T19:16:31;21.60;;;8.63;;
45402;SDS011;47427;51.976;5.326;2022-10-16T19:19:56;22.45;;;9.40;;
45402;SDS011;47427;51.976;5.326;2022-10-16T19:23:19;21.85;;;8.55;;
45402;SDS011;47427;51.976;5.326;2022-10-16T19:26:43;17.10;;;7.72;;
45402;SDS011;47427;51.976;5.326;2022-10-16T19:30:05;17.52;;;6.50;;
45402;SDS011;47427;51.976;5.326;2022-10-16T19:33:28;20.30;;;7.47;;
45402;SDS011;47427;51.976;5.326;2022-10-16T19:36:51;13.95;;;6.70;;
45402;SDS011;47427;51.976;5.326;2022-10-16T19:40:13;14.80;;;6.55;;
45402;SDS011;47427;51.976;5.326;2022-10-16T19:43:34;16.40;;;6.70;;
45402;SDS011;47427;51.976;5.326;2022-10-16T19:46:57;17.00;;;6.30;;
45402;SDS011;47427;51.976;5.326;2022-10-16T19:50:18;15.00;;;7.32;;
45402;SDS011;47427;51.976;5.326;2022-10-16T19:53:41;17.23;;;6.47;;
45402;SDS011;47427;51.976;5.326;2022-10-16T19:57:05;16.17;;;6.88;;
45402;SDS011;47427;51.976;5.326;2022-10-16T20:00:26;17.02;;;7.32;;
45402;SDS011;47427;51.976;5.326;2022-10-16T20:03:49;18.38;;;7.30;;
45402;SDS011;47427;51.976;5.326;2022-10-16T20:07:11;14.70;;;7.88;;
45402;SDS011;47427;51.976;5.326;2022-10-16T20:10:34;17.38;;;7.95;;
45402;SDS011;47427;51.976;5.326;2022-10-16T20:13:56;16.58;;;8.20;;
45402;SDS011;47427;51.976;5.326;2022-10-16T20:17:18;18.38;;;8.57;;
45402;SDS011;47427;51.976;5.326;2022-10-16T20:20:42;18.17;;;8.63;;
45402;SDS011;47427;51.976;5.326;2022-10-16T20:24:09;16.98;;;8.75;;
45402;SDS011;47427;51.976;5.326;2022-10-16T20:27:32;16.58;;;8.85;;
45402;SDS011;47427;51.976;5.326;2022-10-16T20:30:54;16.63;;;8.00;;
45402;SDS011;47427;51.976;5.326;2022-10-16T20:34:16;12.80;;;8.02;;
45402;SDS011;47427;51.976;5.326;2022-10-16T20:37:38;19.52;;;7.07;;
45402;SDS011;47427;51.976;5.326;2022-10-16T20:41:05;12.80;;;7.22;;
45402;SDS011;47427;51.976;5.326;2022-10-16T20:44:28;12.30;;;7.05;;
45402;SDS011;47427;51.976;5.326;2022-10-16T20:47:50;12.05;;;6.53;;
45402;SDS011;47427;51.976;5.326;2022-10-16T20:51:20;17.13;;;7.40;;
45402;SDS011;47427;51.976;5.326;2022-10-16T20:54:49;10.98;;;6.40;;
45402;SDS011;47427;51.976;5.326;2022-10-16T20:58:12;10.35;;;5.70;;
45402;SDS011;47427;51.976;5.326;2022-10-16T21:01:34;13.23;;;6.40;;
45402;SDS011;47427;51.976;5.326;2022-10-16T21:04:57;13.60;;;5.82;;
45402;SDS011;47427;51.976;5.326;2022-10-16T21:08:18;9.90;;;4.82;;
45402;SDS011;47427;51.976;5.326;2022-10-16T21:11:59;12.23;;;6.03;;
45402;SDS011;47427;51.976;5.326;2022-10-16T21:15:21;10.02;;;5.85;;
45402;SDS011;47427;51.976;5.326;2022-10-16T21:18:42;10.80;;;4.97;;
45402;SDS011;47427;51.976;5.326;2022-10-16T21:22:05;9.68;;;5.45;;
45402;SDS011;47427;51.976;5.326;2022-10-16T21:25:27;8.55;;;5.30;;
45402;SDS011;47427;51.976;5.326;2022-10-16T21:29:03;12.13;;;5.13;;
45402;SDS011;47427;51.976;5.326;2022-10-16T21:32:28;10.80;;;4.72;;
45402;SDS011;47427;51.976;5.326;2022-10-16T21:35:49;9.57;;;4.82;;
45402;SDS011;47427;51.976;5.326;2022-10-16T21:39:13;10.25;;;4.85;;
45402;SDS011;47427;51.976;5.326;2022-10-16T21:42:37;8.50;;;4.87;;
45402;SDS011;47427;51.976;5.326;2022-10-16T21:46:00;12.13;;;5.18;;
45402;SDS011;47427;51.976;5.326;2022-10-16T21:49:22;8.90;;;5.13;;
45402;SDS011;47427;51.976;5.326;2022-10-16T21:52:44;6.82;;;5.18;;
45402;SDS011;47427;51.976;5.326;2022-10-16T21:56:14;9.48;;;5.10;;
45402;SDS011;47427;51.976;5.326;2022-10-16T21:59:38;9.00;;;4.95;;
45402;SDS011;47427;51.976;5.326;2022-10-16T22:03:01;6.70;;;4.65;;
45402;SDS011;47427;51.976;5.326;2022-10-16T22:06:24;7.82;;;4.65;;
45402;SDS011;47427;51.976;5.326;2022-10-16T22:09:47;13.35;;;4.93;;
45402;SDS011;47427;51.976;5.326;2022-10-16T22:13:12;8.98;;;5.30;;
45402;SDS011;47427;51.976;5.326;2022-10-16T22:16:34;8.85;;;5.57;;
45402;SDS011;47427;51.976;5.326;2022-10-16T22:19:56;12.68;;;5.25;;
45402;SDS011;47427;51.976;5.326;2022-10-16T22:23:19;13.75;;;5.95;;
45402;SDS011;47427;51.976;5.326;2022-10-16T22:26:42;12.43;;;6.53;;